Time;durP1;ratioP1;P1;durP2;ratioP2;P2;SDS_P1;SDS_P2;PMS_P1;PMS_P2;Temp;Humidity;BMP_temperature;BMP_pressure;BME280_temperature;BME280_humidity;BME280_pressure;Samples;Min_cycle;Max_cycle;Signal;HPM_P1;HPM_P2
2021/01/18 00:01:30;;;;;;;27.50;14.13;;;0.50;99.90;;;;;;5023552;28;20181;-49
2021/01/18 00:03:55;;;;;;;27.63;15.00;;;0.50;99.90;;;;;;5027061;28;20244;-48
2021/01/18 00:06:22;;;;;;;28.33;15.33;;;0.50;99.90;;;;;;5023523;28;20200;-53
2021/01/18 00:08:48;;;;;;;26.23;15.33;;;0.50;99.90;;;;;;5023608;28;20178;-48
2021/01/18 00:11:16;;;;;;;27.53;14.27;;;0.50;99.90;;;;;;5007860;28;20562;-52
2021/01/18 00:13:44;;;;;;;25.23;14.57;;;0.60;99.90;;;;;;5021754;28;20212;-48
2021/01/18 00:16:12;;;;;;;27.47;14.77;;;0.50;99.90;;;;;;5022078;28;20189;-50
2021/01/18 00:18:37;;;;;;;27.23;14.37;;;0.50;99.90;;;;;;5021147;28;20873;-49
2021/01/18 00:21:03;;;;;;;32.07;15.50;;;0.50;99.90;;;;;;5023402;28;20185;-48
2021/01/18 00:23:28;;;;;;;26.67;14.53;;;0.50;99.90;;;;;;5019223;28;20535;-50
2021/01/18 00:25:54;;;;;;;25.37;14.60;;;0.50;99.90;;;;;;5023268;28;20197;-48
2021/01/18 00:28:19;;;;;;;25.93;14.30;;;0.50;99.90;;;;;;5006204;28;20185;-48
2021/01/18 00:30:45;;;;;;;25.07;14.97;;;0.50;99.90;;;;;;5021918;28;20228;-51
2021/01/18 00:33:10;;;;;;;31.00;16.57;;;0.50;99.90;;;;;;5021762;28;20225;-53
2021/01/18 00:35:36;;;;;;;27.93;15.10;;;0.50;99.90;;;;;;5020907;28;20823;-47
2021/01/18 00:38:02;;;;;;;31.83;15.83;;;0.50;99.90;;;;;;5023206;28;20200;-49
2021/01/18 00:40:28;;;;;;;29.87;15.80;;;0.50;99.90;;;;;;5018439;28;20180;-48
2021/01/18 00:42:55;;;;;;;29.00;15.80;;;0.50;99.90;;;;;;5008911;28;20228;-49
2021/01/18 00:45:22;;;;;;;30.60;16.43;;;0.50;99.90;;;;;;5019409;28;20201;-49
2021/01/18 00:47:50;;;;;;;30.17;15.87;;;0.50;99.90;;;;;;5022505;28;20198;-48
2021/01/18 00:50:18;;;;;;;29.73;15.97;;;0.50;99.90;;;;;;5020293;28;20193;-51
2021/01/18 00:52:45;;;;;;;30.27;16.37;;;0.50;99.90;;;;;;5021767;28;20259;-48
2021/01/18 00:55:12;;;;;;;29.00;15.70;;;0.50;99.90;;;;;;5021425;28;20542;-49
2021/01/18 00:57:38;;;;;;;34.83;16.07;;;0.50;99.90;;;;;;5020588;28;20351;-48
2021/01/18 01:00:27;;;;;;;28.37;14.60;;;0.50;99.90;;;;;;5008510;28;20190;-49
2021/01/18 01:02:53;;;;;;;27.73;14.87;;;0.50;99.90;;;;;;5015424;28;20224;-48
2021/01/18 01:05:20;;;;;;;32.20;16.87;;;0.50;99.90;;;;;;5019871;28;20520;-54
2021/01/18 01:07:48;;;;;;;33.57;16.10;;;0.50;99.90;;;;;;5022046;28;20181;-51
2021/01/18 01:10:26;;;;;;;32.23;17.67;;;0.50;99.90;;;;;;5020523;28;20180;-54
2021/01/18 01:13:00;;;;;;;31.57;16.80;;;0.50;99.90;;;;;;5022357;28;20232;-47
2021/01/18 01:15:26;;;;;;;29.47;15.23;;;0.50;99.90;;;;;;5003011;28;20198;-48
2021/01/18 01:17:51;;;;;;;31.57;16.87;;;0.40;99.90;;;;;;5022551;28;20676;-46
2021/01/18 01:20:18;;;;;;;28.07;16.63;;;0.50;99.90;;;;;;5019661;28;20185;-53
2021/01/18 01:22:44;;;;;;;33.03;16.90;;;0.50;99.90;;;;;;5021442;28;20239;-47
2021/01/18 01:25:11;;;;;;;33.10;17.57;;;0.50;99.90;;;;;;5021681;28;20208;-53
2021/01/18 01:27:37;;;;;;;30.57;16.97;;;0.50;99.90;;;;;;5019808;28;20185;-49
2021/01/18 01:30:05;;;;;;;29.40;16.07;;;0.50;99.90;;;;;;5022525;28;20193;-49
2021/01/18 01:32:30;;;;;;;32.13;16.47;;;0.50;99.90;;;;;;5007199;28;20197;-49
2021/01/18 01:34:56;;;;;;;37.93;18.27;;;0.50;99.90;;;;;;5025035;28;20182;-48
2021/01/18 01:37:21;;;;;;;32.20;18.07;;;0.50;99.90;;;;;;5021751;28;20186;-54
2021/01/18 01:39:47;;;;;;;31.07;15.97;;;0.50;99.90;;;;;;5024526;28;20219;-53
2021/01/18 01:42:19;;;;;;;30.53;15.70;;;0.50;99.90;;;;;;5022664;28;20592;-53
2021/01/18 01:44:45;;;;;;;28.77;15.67;;;0.50;99.90;;;;;;5024040;28;20213;-49
2021/01/18 01:47:16;;;;;;;33.90;17.77;;;0.50;99.90;;;;;;5010427;28;20212;-52
2021/01/18 01:49:41;;;;;;;35.40;16.73;;;0.50;99.90;;;;;;5023378;28;20239;-47
2021/01/18 01:52:07;;;;;;;30.77;16.97;;;0.50;99.90;;;;;;5024314;28;20178;-54
2021/01/18 01:54:33;;;;;;;35.57;17.13;;;0.50;99.90;;;;;;5022053;28;20202;-49
2021/01/18 01:56:59;;;;;;;36.50;18.13;;;0.50;99.90;;;;;;5024980;28;20676;-49
2021/01/18 01:59:26;;;;;;;35.83;16.97;;;0.50;99.90;;;;;;5018453;28;20959;-49
2021/01/18 02:01:52;;;;;;;32.10;17.27;;;0.50;99.90;;;;;;5009402;28;20198;-51
2021/01/18 02:04:18;;;;;;;35.80;17.77;;;0.50;99.90;;;;;;5023646;28;20221;-50
2021/01/18 02:06:43;;;;;;;39.03;17.57;;;0.50;99.90;;;;;;5025514;28;20166;-50
2021/01/18 02:09:09;;;;;;;33.23;17.63;;;0.50;99.90;;;;;;5025783;28;20279;-52
2021/01/18 02:11:34;;;;;;;38.30;18.40;;;0.50;99.90;;;;;;5023386;28;20177;-50
2021/01/18 02:14:30;;;;;;;37.07;17.70;;;0.50;99.90;;;;;;5026310;28;20242;-48
2021/01/18 02:17:09;;;;;;;32.77;17.43;;;0.50;99.90;;;;;;5006656;28;20292;-52
2021/01/18 02:20:05;;;;;;;35.83;18.27;;;0.50;99.90;;;;;;5022977;28;20191;-49
2021/01/18 02:22:37;;;;;;;30.83;15.97;;;0.50;99.90;;;;;;5021759;28;20212;-46
2021/01/18 02:25:24;;;;;;;34.10;17.70;;;0.50;99.90;;;;;;5025506;28;20273;-49
2021/01/18 02:28:11;;;;;;;37.17;17.77;;;0.50;99.90;;;;;;5025786;28;20287;-47
2021/01/18 02:30:59;;;;;;;34.97;17.87;;;0.50;99.90;;;;;;5022861;28;20183;-49
2021/01/18 02:33:57;;;;;;;38.43;18.37;;;0.50;99.90;;;;;;5007822;28;20293;-50
2021/01/18 02:36:53;;;;;;;35.13;18.30;;;0.50;99.90;;;;;;5021754;28;20292;-54
2021/01/18 02:39:48;;;;;;;41.20;20.20;;;0.50;99.90;;;;;;5022961;28;20205;-52
2021/01/18 02:42:19;;;;;;;40.27;18.23;;;0.60;99.90;;;;;;5023844;28;20213;-52
2021/01/18 02:44:47;;;;;;;41.80;18.83;;;0.60;99.90;;;;;;5022043;28;20226;-50
2021/01/18 02:47:14;;;;;;;34.97;17.63;;;0.60;99.90;;;;;;5017141;28;20210;-50
2021/01/18 02:49:41;;;;;;;36.93;18.40;;;0.60;99.90;;;;;;5018188;28;20196;-51
2021/01/18 02:52:10;;;;;;;41.10;20.27;;;0.60;99.90;;;;;;5025397;28;20313;-51
2021/01/18 02:54:35;;;;;;;37.67;18.73;;;0.60;99.90;;;;;;5023079;28;20297;-48
2021/01/18 02:57:04;;;;;;;38.97;18.90;;;0.60;99.90;;;;;;5025489;28;20278;-50
2021/01/18 02:59:30;;;;;;;45.23;19.83;;;0.70;99.90;;;;;;5022128;28;20186;-50
2021/01/18 03:02:04;;;;;;;42.23;18.53;;;0.70;99.90;;;;;;5025845;28;20546;-49
2021/01/18 03:05:15;;;;;;;47.23;20.33;;;0.70;99.90;;;;;;5009467;28;20240;-50
2021/01/18 03:08:14;;;;;;;38.50;19.20;;;0.70;99.90;;;;;;5002594;28;20888;-49
2021/01/18 03:10:47;;;;;;;45.60;19.57;;;0.70;99.90;;;;;;5023515;28;20251;-50
2021/01/18 03:13:25;;;;;;;46.67;20.13;;;0.70;99.90;;;;;;5021826;28;20251;-54
2021/01/18 03:15:57;;;;;;;45.33;20.07;;;0.70;99.90;;;;;;5022010;28;20196;-48
2021/01/18 03:18:25;;;;;;;46.30;19.73;;;0.70;99.90;;;;;;5006362;28;20211;-54
2021/01/18 03:20:50;;;;;;;42.73;19.53;;;0.80;99.90;;;;;;5024012;28;20195;-46
2021/01/18 03:23:16;;;;;;;46.37;19.73;;;0.80;99.90;;;;;;5021925;28;20557;-55
2021/01/18 03:25:46;;;;;;;45.80;20.27;;;0.80;99.90;;;;;;5022854;28;20184;-48
2021/01/18 03:28:12;;;;;;;45.37;19.53;;;0.80;99.90;;;;;;5022907;28;20180;-50
2021/01/18 03:30:37;;;;;;;47.97;21.20;;;0.80;99.90;;;;;;5021848;28;20177;-46
2021/01/18 03:33:03;;;;;;;47.43;21.43;;;0.80;99.90;;;;;;5024424;28;20206;-46
2021/01/18 03:35:28;;;;;;;47.03;21.37;;;0.80;99.90;;;;;;5007392;28;20256;-48
2021/01/18 03:37:56;;;;;;;55.07;21.83;;;0.90;99.90;;;;;;5026161;28;20210;-50
2021/01/18 03:40:23;;;;;;;49.03;22.30;;;0.90;99.90;;;;;;5022469;28;20691;-53
2021/01/18 03:42:56;;;;;;;58.53;21.97;;;0.90;99.90;;;;;;5026412;28;20619;-48
2021/01/18 03:45:22;;;;;;;49.53;20.97;;;0.90;99.90;;;;;;5023022;28;20229;-53
2021/01/18 03:47:48;;;;;;;64.87;23.63;;;0.90;99.90;;;;;;5025939;28;20634;-47
2021/01/18 03:50:13;;;;;;;55.30;20.47;;;0.90;99.90;;;;;;5010744;28;20206;-53
2021/01/18 03:52:39;;;;;;;54.20;20.87;;;0.90;99.90;;;;;;5021497;28;20213;-48
2021/01/18 03:55:05;;;;;;;57.93;23.07;;;0.90;99.90;;;;;;5026104;28;20186;-54
2021/01/18 03:57:30;;;;;;;55.00;20.87;;;0.90;99.90;;;;;;5023288;28;20182;-49
2021/01/18 03:59:56;;;;;;;54.90;21.70;;;0.90;99.90;;;;;;5025639;28;20657;-47
2021/01/18 04:02:21;;;;;;;54.57;21.57;;;0.90;99.90;;;;;;5022280;28;20183;-53
2021/01/18 04:04:47;;;;;;;56.33;21.17;;;0.90;99.90;;;;;;5012735;28;20318;-49
2021/01/18 04:07:12;;;;;;;56.63;21.93;;;1.00;99.90;;;;;;5024116;28;20201;-55
2021/01/18 04:09:38;;;;;;;57.30;22.57;;;1.00;99.90;;;;;;5023113;28;20180;-50
2021/01/18 04:12:04;;;;;;;51.53;21.43;;;1.00;99.90;;;;;;5026614;28;20173;-47
2021/01/18 04:14:31;;;;;;;59.53;22.63;;;1.00;99.90;;;;;;5021027;28;21135;-46
2021/01/18 04:16:56;;;;;;;61.47;23.10;;;1.00;99.90;;;;;;5023570;28;20546;-47
2021/01/18 04:19:22;;;;;;;56.73;20.70;;;1.00;99.90;;;;;;5007297;28;20190;-54
2021/01/18 04:21:47;;;;;;;59.87;22.37;;;1.00;99.90;;;;;;5021634;28;20194;-48
2021/01/18 04:24:13;;;;;;;61.23;22.67;;;1.00;99.90;;;;;;5021061;28;20689;-54
2021/01/18 04:26:38;;;;;;;58.20;21.03;;;1.10;99.90;;;;;;5020813;28;20276;-46
2021/01/18 04:29:04;;;;;;;65.43;19.93;;;1.10;99.90;;;;;;5023102;28;20182;-50
2021/01/18 04:31:30;;;;;;;51.20;18.70;;;1.10;99.90;;;;;;5020254;28;20178;-50
2021/01/18 04:33:55;;;;;;;63.87;20.93;;;1.10;99.90;;;;;;5023428;28;20226;-49
2021/01/18 04:36:21;;;;;;;59.13;19.47;;;1.10;99.90;;;;;;5005658;28;20205;-50
2021/01/18 04:38:47;;;;;;;67.00;18.27;;;1.10;99.90;;;;;;5021809;28;20266;-48
2021/01/18 04:41:13;;;;;;;70.17;18.37;;;1.10;99.90;;;;;;5020971;28;20184;-51
2021/01/18 04:43:39;;;;;;;55.20;18.80;;;1.10;99.90;;;;;;5020975;28;20926;-48
2021/01/18 04:46:10;;;;;;;81.37;18.10;;;1.10;99.90;;;;;;5022720;28;20192;-49
2021/01/18 04:48:38;;;;;;;67.43;17.00;;;1.10;99.90;;;;;;5020212;28;20425;-48
2021/01/18 04:51:06;;;;;;;59.30;14.40;;;1.10;99.90;;;;;;5008842;28;20203;-46
2021/01/18 04:53:32;;;;;;;80.10;16.87;;;1.10;99.90;;;;;;5018981;28;20207;-49
2021/01/18 04:56:33;;;;;;;103.90;19.70;;;1.20;99.90;;;;;;5022845;28;20526;-46
2021/01/18 04:59:02;;;;;;;51.60;17.13;;;1.20;99.90;;;;;;5022848;28;20306;-47
2021/01/18 05:01:30;;;;;;;101.80;16.90;;;1.20;99.90;;;;;;5018772;28;20189;-46
2021/01/18 05:04:03;;;;;;;87.10;17.07;;;1.20;99.90;;;;;;5022644;28;20281;-46
2021/01/18 05:06:48;;;;;;;101.10;17.50;;;1.20;99.90;;;;;;5004281;28;21119;-47
2021/01/18 05:09:24;;;;;;;65.50;16.60;;;1.20;99.90;;;;;;5017431;28;20216;-53
2021/01/18 05:11:51;;;;;;;82.00;16.53;;;1.20;99.90;;;;;;5022690;28;20256;-46
2021/01/18 05:14:17;;;;;;;141.57;18.50;;;1.20;99.90;;;;;;5020088;28;20213;-53
2021/01/18 05:16:55;;;;;;;73.00;16.13;;;1.20;99.90;;;;;;5021431;28;20179;-48
2021/01/18 05:19:23;;;;;;;89.93;17.90;;;1.30;99.90;;;;;;5019168;28;20198;-54
2021/01/18 05:21:49;;;;;;;72.03;18.90;;;1.30;99.90;;;;;;5008107;28;20183;-46
2021/01/18 05:24:18;;;;;;;77.43;18.03;;;1.30;99.90;;;;;;5019559;28;20222;-51
2021/01/18 05:26:44;;;;;;;71.43;16.43;;;1.30;99.90;;;;;;5022156;28;20770;-48
2021/01/18 05:29:09;;;;;;;78.77;19.07;;;1.30;99.90;;;;;;5022255;28;20191;-49
2021/01/18 05:31:38;;;;;;;57.73;17.90;;;1.30;99.90;;;;;;5019690;28;20258;-46
2021/01/18 05:34:06;;;;;;;53.93;18.77;;;1.30;99.90;;;;;;5022461;28;20560;-48
2021/01/18 05:36:37;;;;;;;72.00;21.03;;;1.30;99.90;;;;;;5018774;28;20286;-48
2021/01/18 05:39:18;;;;;;;58.13;21.10;;;1.30;99.90;;;;;;5011975;28;20192;-47
2021/01/18 05:41:44;;;;;;;51.50;19.37;;;1.40;99.90;;;;;;5022236;28;20266;-46
2021/01/18 05:44:10;;;;;;;64.80;19.10;;;1.40;99.90;;;;;;5024886;28;20246;-55
2021/01/18 05:46:43;;;;;;;80.33;22.87;;;1.40;99.90;;;;;;5023735;28;20211;-46
2021/01/18 05:49:11;;;;;;;52.53;19.10;;;1.40;99.90;;;;;;5024929;28;20198;-51
2021/01/18 05:51:38;;;;;;;58.60;17.97;;;1.40;99.90;;;;;;5023485;28;20795;-52
2021/01/18 05:54:04;;;;;;;61.43;20.33;;;1.40;99.90;;;;;;5010353;28;20214;-47
2021/01/18 05:56:44;;;;;;;47.23;15.73;;;1.40;99.90;;;;;;5022049;28;20234;-48
2021/01/18 05:59:14;;;;;;;48.50;15.43;;;1.40;99.90;;;;;;5024503;28;20195;-50
2021/01/18 06:01:39;;;;;;;45.00;16.03;;;1.40;99.90;;;;;;5023947;28;20179;-48
2021/01/18 06:04:16;;;;;;;42.37;15.67;;;1.40;99.90;;;;;;5025457;28;20225;-52
2021/01/18 06:06:43;;;;;;;29.07;13.70;;;1.50;99.90;;;;;;5024351;28;20179;-47
2021/01/18 06:09:09;;;;;;;33.90;13.00;;;1.40;99.90;;;;;;5013177;28;20209;-52
2021/01/18 06:11:35;;;;;;;41.30;16.07;;;1.40;99.90;;;;;;5019835;28;20854;-47
2021/01/18 06:14:02;;;;;;;41.33;15.97;;;1.40;99.90;;;;;;5014822;28;20340;-51
2021/01/18 06:16:29;;;;;;;40.87;15.00;;;1.50;99.90;;;;;;5021722;28;20191;-50
2021/01/18 06:19:08;;;;;;;30.50;12.43;;;1.50;99.90;;;;;;5021603;28;20186;-53
2021/01/18 06:21:37;;;;;;;50.17;14.50;;;1.50;99.90;;;;;;5027369;28;20245;-46
2021/01/18 06:24:17;;;;;;;68.53;20.03;;;1.50;99.90;;;;;;5015539;28;20211;-52
2021/01/18 06:26:44;;;;;;;69.60;16.93;;;1.50;99.90;;;;;;5023050;28;20248;-46
2021/01/18 06:29:10;;;;;;;58.70;16.50;;;1.50;99.90;;;;;;5020311;28;20182;-48
2021/01/18 06:31:45;;;;;;;60.63;17.63;;;1.50;99.90;;;;;;5025499;28;20180;-47
2021/01/18 06:34:26;;;;;;;46.43;14.00;;;1.60;99.90;;;;;;5009855;28;20214;-52
2021/01/18 06:36:55;;;;;;;73.87;19.50;;;1.60;99.90;;;;;;5024890;28;20195;-48
2021/01/18 06:39:24;;;;;;;68.63;16.10;;;1.60;99.90;;;;;;5022354;28;20182;-47
2021/01/18 06:41:56;;;;;;;38.03;12.67;;;1.60;99.90;;;;;;5012992;28;20768;-50
2021/01/18 06:44:36;;;;;;;36.63;13.57;;;1.60;99.90;;;;;;5023253;28;20214;-47
2021/01/18 06:47:23;;;;;;;96.50;19.37;;;1.60;99.90;;;;;;5024327;28;20195;-53
2021/01/18 06:49:54;;;;;;;90.60;19.17;;;1.60;99.90;;;;;;5012802;28;20277;-46
2021/01/18 06:52:33;;;;;;;103.70;18.17;;;1.70;99.90;;;;;;5023277;28;20187;-44
2021/01/18 06:55:12;;;;;;;68.83;15.97;;;1.70;99.90;;;;;;5017355;28;20655;-51
2021/01/18 06:57:47;;;;;;;51.10;15.33;;;1.70;99.90;;;;;;5025032;28;20205;-46
2021/01/18 07:00:17;;;;;;;54.27;15.53;;;1.70;99.90;;;;;;5020788;28;20216;-45
2021/01/18 07:02:56;;;;;;;45.67;11.83;;;1.70;99.90;;;;;;5025873;28;20194;-50
2021/01/18 07:05:36;;;;;;;85.07;15.33;;;1.80;99.90;;;;;;5015057;28;20221;-46
2021/01/18 07:08:18;;;;;;;85.17;17.17;;;1.80;99.90;;;;;;5015903;28;20198;-53
2021/01/18 07:10:49;;;;;;;64.13;14.20;;;1.80;99.90;;;;;;5025975;28;20233;-48
2021/01/18 07:13:18;;;;;;;59.10;12.57;;;1.80;99.90;;;;;;5004500;28;20239;-48
2021/01/18 07:15:44;;;;;;;62.93;13.43;;;1.80;99.90;;;;;;5025303;28;20536;-47
2021/01/18 07:18:11;;;;;;;47.97;12.47;;;1.90;99.90;;;;;;5016444;28;20191;-52
2021/01/18 07:20:42;;;;;;;57.17;13.37;;;1.90;99.90;;;;;;5015755;28;20179;-45
2021/01/18 07:23:08;;;;;;;64.93;14.67;;;1.90;99.90;;;;;;5014447;28;20576;-54
2021/01/18 07:25:35;;;;;;;54.33;13.20;;;1.90;99.90;;;;;;5022907;28;20183;-46
2021/01/18 07:28:03;;;;;;;64.50;14.27;;;1.90;99.90;;;;;;5007255;28;20341;-53
2021/01/18 07:30:36;;;;;;;39.17;11.23;;;1.90;99.90;;;;;;5011403;28;20258;-54
2021/01/18 07:33:13;;;;;;;47.97;11.80;;;2.00;99.90;;;;;;5015501;28;20196;-49
2021/01/18 07:35:40;;;;;;;44.47;12.57;;;2.00;99.90;;;;;;5010498;28;21773;-49
2021/01/18 07:38:11;;;;;;;53.00;13.10;;;2.00;99.90;;;;;;5018261;28;20210;-47
2021/01/18 07:40:36;;;;;;;39.10;11.93;;;2.00;99.90;;;;;;5010849;28;20526;-47
2021/01/18 07:43:02;;;;;;;59.50;13.53;;;2.00;99.90;;;;;;5005528;28;20222;-48
2021/01/18 07:45:27;;;;;;;39.30;12.53;;;2.00;99.90;;;;;;5022437;28;20187;-47
2021/01/18 07:47:56;;;;;;;38.17;12.23;;;2.00;99.90;;;;;;5000475;28;505220;-54
2021/01/18 07:50:29;;;;;;;33.87;10.57;;;2.10;99.90;;;;;;5016710;28;20342;-50
2021/01/18 07:52:59;;;;;;;42.33;12.07;;;2.10;99.90;;;;;;5013589;28;20534;-51
2021/01/18 07:55:25;;;;;;;46.03;15.30;;;2.10;99.90;;;;;;5014682;28;20172;-48
2021/01/18 07:57:50;;;;;;;57.07;12.93;;;2.10;99.90;;;;;;5008834;28;20202;-50
2021/01/18 08:00:26;;;;;;;40.10;12.90;;;2.20;99.90;;;;;;5019383;28;20179;-48
2021/01/18 08:02:53;;;;;;;49.80;13.63;;;2.20;99.90;;;;;;5018061;28;20221;-50
2021/01/18 08:05:20;;;;;;;40.47;11.60;;;2.20;99.90;;;;;;5015727;28;22868;-47
2021/01/18 08:08:09;;;;;;;51.37;10.70;;;2.20;99.90;;;;;;5019071;28;20244;-47
2021/01/18 08:11:02;;;;;;;54.17;11.57;;;2.30;99.90;;;;;;5018599;28;20187;-50
2021/01/18 08:13:31;;;;;;;39.17;11.17;;;2.30;99.90;;;;;;5003571;28;20219;-46
2021/01/18 08:16:16;;;;;;;52.30;11.83;;;2.30;99.90;;;;;;5021073;28;20207;-53
2021/01/18 08:19:14;;;;;;;46.37;13.30;;;2.30;99.90;;;;;;5015187;28;20248;-49
2021/01/18 08:21:54;;;;;;;37.23;11.73;;;2.40;99.90;;;;;;5007317;28;20195;-49
2021/01/18 08:24:22;;;;;;;60.57;14.77;;;2.40;99.90;;;;;;5016307;28;20268;-49
2021/01/18 08:27:01;;;;;;;35.23;11.83;;;2.40;99.90;;;;;;5021497;28;20207;-52
2021/01/18 08:29:45;;;;;;;35.70;12.83;;;2.50;99.90;;;;;;5014057;28;20274;-47
2021/01/18 08:32:30;;;;;;;29.80;12.17;;;2.50;99.90;;;;;;5018598;28;20182;-54
2021/01/18 08:35:07;;;;;;;66.70;17.10;;;2.50;99.90;;;;;;5016750;28;20215;-52
2021/01/18 08:37:35;;;;;;;39.80;14.27;;;2.50;99.90;;;;;;5012386;28;20195;-49
2021/01/18 08:40:13;;;;;;;59.67;16.03;;;2.60;99.90;;;;;;5014052;28;20187;-49
2021/01/18 08:42:41;;;;;;;57.37;18.23;;;2.60;99.90;;;;;;5006611;28;20199;-48
2021/01/18 08:45:23;;;;;;;93.23;21.67;;;2.60;99.90;;;;;;5014075;28;20936;-49
2021/01/18 08:47:59;;;;;;;61.87;17.10;;;2.70;99.90;;;;;;5022391;28;20199;-54
2021/01/18 08:50:28;;;;;;;35.77;10.53;;;2.70;99.90;;;;;;5019630;28;20194;-48
2021/01/18 08:52:59;;;;;;;44.20;14.40;;;2.70;99.90;;;;;;5016274;28;20199;-52
2021/01/18 08:55:30;;;;;;;39.70;13.93;;;2.70;99.90;;;;;;5017005;28;20187;-47
2021/01/18 08:58:04;;;;;;;43.47;14.83;;;2.80;99.90;;;;;;5013736;28;20182;-50
2021/01/18 09:00:46;;;;;;;39.03;13.70;;;2.80;99.90;;;;;;5014057;28;20190;-49
2021/01/18 09:03:17;;;;;;;26.20;11.40;;;2.80;99.90;;;;;;5017424;28;20226;-52
2021/01/18 09:05:44;;;;;;;44.00;14.57;;;2.90;99.90;;;;;;5018474;28;20275;-48
2021/01/18 09:08:13;;;;;;;40.53;12.90;;;2.80;99.90;;;;;;5014013;28;20672;-48
2021/01/18 09:10:38;;;;;;;34.93;12.37;;;2.90;99.90;;;;;;5017548;28;20261;-49
2021/01/18 09:13:06;;;;;;;45.83;13.80;;;2.90;99.90;;;;;;5005878;28;20811;-53
2021/01/18 09:15:33;;;;;;;41.53;14.73;;;2.90;99.90;;;;;;5018833;28;20193;-48
2021/01/18 09:18:08;;;;;;;29.83;12.33;;;3.00;99.90;;;;;;5019913;28;20187;-54
2021/01/18 09:20:39;;;;;;;43.13;14.57;;;3.00;99.90;;;;;;5018888;28;20233;-51
2021/01/18 09:23:07;;;;;;;39.80;13.57;;;3.00;99.90;;;;;;5014958;28;20210;-53
2021/01/18 09:25:34;;;;;;;44.50;13.07;;;3.00;99.90;;;;;;5018750;28;20649;-47
2021/01/18 09:28:13;;;;;;;30.73;11.33;;;3.00;99.90;;;;;;5020390;28;20195;-51
2021/01/18 09:30:44;;;;;;;27.13;11.97;;;3.10;99.90;;;;;;5009715;28;20199;-47
2021/01/18 09:33:13;;;;;;;28.57;12.40;;;3.10;99.90;;;;;;5012252;28;20957;-47
2021/01/18 09:35:47;;;;;;;29.43;11.87;;;3.10;99.90;;;;;;5018094;28;20206;-51
2021/01/18 09:38:14;;;;;;;33.10;12.90;;;3.10;99.90;;;;;;5004883;28;20188;-53
2021/01/18 09:40:42;;;;;;;40.60;14.10;;;3.20;99.90;;;;;;5011612;28;20187;-53
2021/01/18 09:43:11;;;;;;;33.93;11.37;;;3.20;99.90;;;;;;5016601;28;20275;-47
2021/01/18 09:45:37;;;;;;;43.23;14.27;;;3.20;99.90;;;;;;4999441;28;20267;-54
2021/01/18 09:48:07;;;;;;;39.50;13.20;;;3.20;99.90;;;;;;5017346;28;20299;-55
2021/01/18 09:50:35;;;;;;;59.73;16.13;;;3.30;99.90;;;;;;5010511;28;20176;-51
2021/01/18 09:53:05;;;;;;;48.90;14.87;;;3.30;99.90;;;;;;5017448;28;20197;-55
2021/01/18 09:55:45;;;;;;;31.80;12.07;;;3.30;99.90;;;;;;5012517;28;20188;-52
2021/01/18 09:58:25;;;;;;;46.30;13.97;;;3.40;99.90;;;;;;5018367;28;20187;-57
2021/01/18 10:00:52;;;;;;;42.40;14.37;;;3.40;99.90;;;;;;5002015;28;20216;-56
2021/01/18 10:03:36;;;;;;;35.63;12.93;;;3.40;99.90;;;;;;5017403;28;20294;-54
2021/01/18 10:06:06;;;;;;;45.50;14.80;;;3.40;99.90;;;;;;5023646;28;20180;-56
2021/01/18 10:08:33;;;;;;;47.70;15.47;;;3.50;99.90;;;;;;5007666;28;20210;-55
2021/01/18 10:10:59;;;;;;;36.37;14.77;;;3.50;99.90;;;;;;5016489;28;20207;-53
2021/01/18 10:13:25;;;;;;;45.23;17.13;;;3.50;99.90;;;;;;5018739;28;20203;-57
2021/01/18 10:15:52;;;;;;;42.27;15.63;;;3.50;99.90;;;;;;5002554;28;20791;-50
2021/01/18 10:18:30;;;;;;;49.03;14.10;;;3.50;99.90;;;;;;5019268;28;20207;-55
2021/01/18 10:20:56;;;;;;;40.63;15.53;;;3.50;99.90;;;;;;5020091;28;20241;-53
2021/01/18 10:23:22;;;;;;;36.80;14.97;;;3.60;99.90;;;;;;5015195;28;20215;-56
2021/01/18 10:25:47;;;;;;;37.13;14.03;;;3.60;99.90;;;;;;5017905;28;20265;-53
2021/01/18 10:28:20;;;;;;;38.40;13.30;;;3.60;99.90;;;;;;5019263;28;20671;-56
2021/01/18 10:30:49;;;;;;;38.87;13.77;;;3.60;99.90;;;;;;5006333;28;20192;-53
2021/01/18 10:33:16;;;;;;;51.80;15.53;;;3.60;99.90;;;;;;5020749;28;20243;-57
2021/01/18 10:35:42;;;;;;;45.60;15.07;;;3.60;99.90;;;;;;5023139;28;20176;-55
2021/01/18 10:38:22;;;;;;;31.07;12.00;;;3.60;99.90;;;;;;5023452;28;20245;-56
2021/01/18 10:41:01;;;;;;;47.40;15.17;;;3.60;99.90;;;;;;5014597;28;20234;-55
2021/01/18 10:43:29;;;;;;;26.03;11.20;;;3.70;99.90;;;;;;5014931;28;20212;-55
2021/01/18 10:45:55;;;;;;;25.40;10.93;;;3.70;99.90;;;;;;5004607;28;20275;-53
2021/01/18 10:48:26;;;;;;;34.47;14.57;;;3.70;99.90;;;;;;5016991;28;20270;-49
2021/01/18 10:51:03;;;;;;;26.27;10.80;;;3.70;99.90;;;;;;5013092;28;20184;-54
2021/01/18 10:53:33;;;;;;;30.00;12.93;;;3.70;99.90;;;;;;5026755;28;20208;-50
2021/01/18 10:56:16;;;;;;;36.23;13.27;;;3.70;99.90;;;;;;5008905;28;20199;-47
2021/01/18 10:58:42;;;;;;;32.17;11.83;;;3.70;99.90;;;;;;5022471;28;20326;-50
2021/01/18 11:01:09;;;;;;;42.37;16.07;;;3.70;99.90;;;;;;5002050;28;23746;-50
2021/01/18 11:03:36;;;;;;;29.83;13.40;;;3.70;99.90;;;;;;5014405;28;20270;-52
2021/01/18 11:06:10;;;;;;;42.93;13.87;;;3.70;99.90;;;;;;5019603;28;20191;-46
2021/01/18 11:08:36;;;;;;;57.13;15.87;;;3.70;99.90;;;;;;5020276;28;20187;-48
2021/01/18 11:11:04;;;;;;;38.23;14.23;;;3.70;99.90;;;;;;5017360;28;21054;-49
2021/01/18 11:13:29;;;;;;;37.30;14.13;;;3.80;99.90;;;;;;5020063;28;20227;-46
2021/01/18 11:15:55;;;;;;;27.20;12.13;;;3.80;99.90;;;;;;5006949;28;20424;-49
2021/01/18 11:18:21;;;;;;;32.13;12.97;;;3.80;99.90;;;;;;5019772;28;20719;-47
2021/01/18 11:20:52;;;;;;;55.93;19.10;;;3.80;99.90;;;;;;5021045;28;20219;-53
2021/01/18 11:23:17;;;;;;;30.80;13.27;;;3.80;99.90;;;;;;5019264;28;20676;-52
2021/01/18 11:25:43;;;;;;;31.20;14.03;;;3.80;99.90;;;;;;5020409;28;20194;-50
2021/01/18 11:28:10;;;;;;;38.37;14.83;;;3.90;99.90;;;;;;5016814;28;21047;-50
2021/01/18 11:30:36;;;;;;;26.07;12.70;;;3.90;99.90;;;;;;5019884;28;20188;-51
2021/01/18 11:33:03;;;;;;;43.67;16.43;;;3.90;99.90;;;;;;4990185;28;20207;-49
2021/01/18 11:35:28;;;;;;;43.57;15.23;;;3.90;99.90;;;;;;5023984;28;20653;-50
2021/01/18 11:37:54;;;;;;;32.47;14.13;;;3.90;99.90;;;;;;5019013;28;20272;-52
2021/01/18 11:40:20;;;;;;;35.23;13.93;;;3.90;99.90;;;;;;5022625;28;20191;-45
2021/01/18 11:42:45;;;;;;;48.80;14.97;;;4.00;99.90;;;;;;5016212;28;20691;-54
2021/01/18 11:45:12;;;;;;;35.83;14.27;;;4.00;99.90;;;;;;5014772;28;20203;-45
2021/01/18 11:47:38;;;;;;;41.90;16.67;;;4.00;99.90;;;;;;5017606;28;20196;-51
2021/01/18 11:50:06;;;;;;;35.77;15.57;;;4.00;99.90;;;;;;5008322;28;20263;-47
2021/01/18 11:52:32;;;;;;;47.53;17.53;;;4.00;99.90;;;;;;5023045;28;20184;-50
2021/01/18 11:54:57;;;;;;;35.50;15.30;;;4.10;99.90;;;;;;5015379;28;20207;-51
2021/01/18 11:57:23;;;;;;;32.50;12.90;;;4.10;99.90;;;;;;5017285;28;20180;-46
2021/01/18 11:59:48;;;;;;;47.63;15.83;;;4.10;99.90;;;;;;5012150;28;20199;-50
2021/01/18 12:02:18;;;;;;;40.63;15.80;;;4.10;99.90;;;;;;5022353;28;20522;-48
2021/01/18 12:04:44;;;;;;;35.17;15.13;;;4.10;99.90;;;;;;5006483;28;20609;-48
2021/01/18 12:07:10;;;;;;;29.17;16.00;;;4.20;99.90;;;;;;5021563;28;20172;-45
2021/01/18 12:09:36;;;;;;;38.93;16.80;;;4.20;99.90;;;;;;5022333;28;20702;-48
2021/01/18 12:12:02;;;;;;;47.50;18.03;;;4.20;99.90;;;;;;5021525;28;20251;-49
2021/01/18 12:14:27;;;;;;;38.47;16.77;;;4.20;99.90;;;;;;5019668;28;20204;-50
2021/01/18 12:16:53;;;;;;;47.10;18.93;;;4.20;99.90;;;;;;5006150;28;20264;-51
2021/01/18 12:19:18;;;;;;;37.60;16.93;;;4.30;99.90;;;;;;5010688;28;20250;-48
2021/01/18 12:21:44;;;;;;;29.37;15.60;;;4.30;99.90;;;;;;5016913;28;20220;-50
2021/01/18 12:24:09;;;;;;;35.30;15.70;;;4.30;99.90;;;;;;5024052;28;20288;-49
2021/01/18 12:26:35;;;;;;;18.43;8.87;;;4.30;99.90;;;;;;5024228;28;20184;-47
2021/01/18 12:29:00;;;;;;;40.13;16.77;;;4.30;99.90;;;;;;5017612;28;20322;-48
2021/01/18 12:31:26;;;;;;;37.23;17.00;;;4.30;99.90;;;;;;5020548;28;20531;-48
2021/01/18 12:33:53;;;;;;;35.60;16.33;;;4.30;99.90;;;;;;5004605;28;20227;-53
2021/01/18 12:36:18;;;;;;;33.83;16.43;;;4.40;99.90;;;;;;5020244;28;20188;-49
2021/01/18 12:38:44;;;;;;;29.47;17.07;;;4.40;99.90;;;;;;5019657;28;20552;-53
2021/01/18 12:41:11;;;;;;;34.67;17.40;;;4.40;99.90;;;;;;5024818;28;20176;-48
2021/01/18 12:43:36;;;;;;;32.30;15.90;;;4.40;99.90;;;;;;5024416;28;20203;-54
2021/01/18 12:46:02;;;;;;;27.17;16.57;;;4.40;99.90;;;;;;5014737;28;20235;-47
2021/01/18 12:48:28;;;;;;;37.73;16.57;;;4.40;99.90;;;;;;5022875;28;20683;-46
2021/01/18 12:50:53;;;;;;;53.70;19.87;;;4.40;99.90;;;;;;4997566;28;20184;-47